Time;durP1;ratioP1;P1;durP2;ratioP2;P2;SDS_P1;SDS_P2;PMS_P1;PMS_P2;Temp;Humidity;BMP_temperature;BMP_pressure;BME280_temperature;BME280_humidity;BME280_pressure;Samples;Min_cycle;Max_cycle;Signal;HPM_P1;HPM_P2
2022/08/31 00:06:16;;;;;;;1.85;0.55;;;15.20;99.90;;;;;;6218001;23;20486;-78
2022/08/31 00:08:42;;;;;;;4.18;0.57;;;15.10;99.90;;;;;;6246511;23;20016;-78
2022/08/31 00:11:12;;;;;;;3.85;0.60;;;15.10;99.90;;;;;;6193826;23;20027;-78
2022/08/31 00:13:40;;;;;;;4.05;1.10;;;15.00;99.90;;;;;;6245508;23;20016;-78
2022/08/31 00:16:06;;;;;;;0.77;0.50;;;14.90;99.90;;;;;;6219268;23;20088;-78
2022/08/31 00:18:32;;;;;;;3.53;0.85;;;14.80;99.90;;;;;;6246474;23;20019;-78
2022/08/31 00:20:58;;;;;;;0.75;0.50;;;14.80;99.90;;;;;;6217930;23;20016;-78
2022/08/31 00:23:24;;;;;;;1.85;0.55;;;14.60;99.90;;;;;;6246062;23;20072;-78
2022/08/31 00:25:51;;;;;;;0.85;0.40;;;14.60;99.90;;;;;;6218894;23;20027;-78
2022/08/31 00:28:17;;;;;;;1.85;0.63;;;14.60;99.90;;;;;;6245358;23;20115;-78
2022/08/31 00:30:43;;;;;;;0.88;0.60;;;14.50;99.90;;;;;;6218623;23;20020;-78
2022/08/31 00:33:10;;;;;;;3.33;0.65;;;14.50;99.90;;;;;;6245848;23;20095;-78
2022/08/31 00:35:38;;;;;;;1.08;0.40;;;14.50;99.90;;;;;;6217552;23;20016;-78
2022/08/31 00:38:04;;;;;;;1.15;0.60;;;14.60;99.90;;;;;;6245987;23;20026;-78
2022/08/31 00:40:31;;;;;;;4.00;0.75;;;14.50;99.90;;;;;;6245885;23;20087;-78
2022/08/31 00:42:59;;;;;;;3.20;0.60;;;14.50;99.90;;;;;;6245084;23;20107;-78
2022/08/31 00:45:26;;;;;;;3.33;0.30;;;14.50;99.90;;;;;;6245967;23;20098;-78
2022/08/31 00:47:52;;;;;;;0.80;0.50;;;14.50;99.90;;;;;;6245309;23;20012;-78
2022/08/31 00:50:20;;;;;;;1.10;0.60;;;14.50;99.90;;;;;;6245530;23;20012;-78
2022/08/31 00:52:54;;;;;;;5.05;1.00;;;14.50;99.90;;;;;;6245840;23;20027;-79
2022/08/31 00:55:22;;;;;;;1.08;0.80;;;14.50;99.90;;;;;;6244530;23;20044;-78
2022/08/31 00:57:52;;;;;;;3.30;0.63;;;14.50;99.90;;;;;;6218579;23;20016;-78
2022/08/31 01:00:22;;;;;;;1.05;0.57;;;14.60;99.90;;;;;;6218889;23;20020;-78
2022/08/31 01:02:48;;;;;;;2.95;0.68;;;14.60;99.90;;;;;;6219878;23;20019;-78
2022/08/31 01:05:15;;;;;;;3.75;0.70;;;14.60;99.90;;;;;;6220377;23;20016;-78
2022/08/31 01:07:43;;;;;;;4.75;1.00;;;14.70;99.90;;;;;;6220927;23;20055;-78
2022/08/31 01:10:10;;;;;;;5.47;0.88;;;14.70;99.90;;;;;;6219435;23;20012;-78
2022/08/31 01:12:36;;;;;;;0.63;0.63;;;14.70;99.90;;;;;;6220611;23;20727;-79
2022/08/31 01:15:05;;;;;;;1.23;0.55;;;14.70;99.90;;;;;;6219712;23;20020;-78
2022/08/31 01:17:33;;;;;;;1.83;0.70;;;14.70;99.90;;;;;;6219692;23;20012;-78
2022/08/31 01:20:23;;;;;;;2.40;0.80;;;14.80;99.90;;;;;;6220231;23;20025;-79
2022/08/31 01:23:08;;;;;;;2.40;0.63;;;14.80;99.90;;;;;;6247393;23;20019;-78
2022/08/31 01:25:36;;;;;;;0.75;0.57;;;14.80;99.90;;;;;;6219790;23;20102;-78
2022/08/31 01:28:05;;;;;;;2.40;0.60;;;14.80;99.90;;;;;;6195425;23;20048;-79
2022/08/31 01:30:32;;;;;;;1.42;0.50;;;14.80;99.90;;;;;;6219251;23;20047;-78
2022/08/31 01:33:02;;;;;;;0.68;0.32;;;14.80;99.90;;;;;;6220792;23;20462;-78
2022/08/31 01:35:28;;;;;;;0.93;0.60;;;14.90;99.90;;;;;;6219904;23;20012;-78
2022/08/31 01:37:55;;;;;;;3.63;0.40;;;14.90;99.90;;;;;;6219532;23;20518;-79
2022/08/31 01:40:25;;;;;;;1.45;0.22;;;14.90;99.90;;;;;;6220177;23;20012;-78
2022/08/31 01:42:51;;;;;;;0.80;0.50;;;14.90;99.90;;;;;;6247681;23;20023;-78
2022/08/31 01:45:17;;;;;;;0.32;0.28;;;14.90;99.90;;;;;;6219143;23;20016;-78
2022/08/31 01:47:42;;;;;;;2.95;0.40;;;14.90;99.90;;;;;;6246220;23;20012;-78
2022/08/31 01:50:09;;;;;;;2.80;0.50;;;15.00;99.90;;;;;;6247414;23;20016;-77
2022/08/31 01:52:36;;;;;;;0.32;0.30;;;15.00;99.90;;;;;;6246528;23;20091;-78
2022/08/31 01:55:04;;;;;;;0.57;0.32;;;14.90;99.90;;;;;;6244214;23;20012;-77
2022/08/31 01:57:30;;;;;;;1.40;0.45;;;14.90;99.90;;;;;;6219975;23;20024;-77
2022/08/31 01:59:59;;;;;;;0.73;0.40;;;14.90;99.90;;;;;;6219364;23;20012;-79
2022/08/31 02:02:25;;;;;;;1.10;0.45;;;14.90;99.90;;;;;;6246992;23;20016;-78
2022/08/31 02:04:51;;;;;;;0.47;0.30;;;14.80;99.90;;;;;;6247330;23;20339;-78
2022/08/31 02:07:16;;;;;;;1.75;0.40;;;14.70;99.90;;;;;;6218897;23;20459;-78
2022/08/31 02:09:42;;;;;;;4.65;1.00;;;14.70;99.90;;;;;;6219522;23;20020;-78
2022/08/31 02:12:08;;;;;;;2.63;0.40;;;14.70;99.90;;;;;;6193054;23;20491;-78
2022/08/31 02:14:34;;;;;;;0.80;0.35;;;14.70;99.90;;;;;;6246985;23;20008;-78
2022/08/31 02:16:59;;;;;;;1.63;0.55;;;14.60;99.90;;;;;;6219759;23;20020;-78
2022/08/31 02:19:25;;;;;;;5.25;0.47;;;14.50;99.90;;;;;;6219321;23;20398;-78
2022/08/31 02:21:51;;;;;;;1.42;0.63;;;14.50;99.90;;;;;;6246364;23;20019;-78
2022/08/31 02:24:16;;;;;;;0.68;0.50;;;14.40;99.90;;;;;;6220148;23;20058;-77
2022/08/31 02:26:42;;;;;;;0.88;0.50;;;14.40;99.90;;;;;;6218370;23;20027;-78
2022/08/31 02:29:08;;;;;;;1.80;1.08;;;14.30;99.90;;;;;;6194838;23;20012;-78
2022/08/31 02:31:34;;;;;;;1.15;0.60;;;14.30;99.90;;;;;;6219480;23;20024;-78
2022/08/31 02:34:00;;;;;;;1.20;0.40;;;14.30;99.90;;;;;;6218981;23;20159;-78
2022/08/31 02:36:26;;;;;;;0.30;0.30;;;14.20;99.90;;;;;;6193958;23;20060;-78
2022/08/31 02:38:52;;;;;;;1.83;0.50;;;14.10;99.90;;;;;;6246759;23;20016;-78
2022/08/31 02:41:18;;;;;;;1.73;1.05;;;14.10;99.90;;;;;;6218883;23;20078;-78
2022/08/31 02:43:44;;;;;;;0.63;0.43;;;14.00;99.90;;;;;;6246689;23;20035;-78
2022/08/31 02:46:09;;;;;;;3.05;0.63;;;14.00;99.90;;;;;;6217980;23;20027;-78
2022/08/31 02:48:35;;;;;;;0.95;0.70;;;13.90;99.90;;;;;;6218533;23;20024;-78
2022/08/31 02:51:05;;;;;;;1.25;0.57;;;13.80;99.90;;;;;;6219679;23;20024;-78
2022/08/31 02:53:31;;;;;;;0.70;0.60;;;13.80;99.90;;;;;;6244674;23;20151;-78
2022/08/31 02:55:57;;;;;;;0.95;0.60;;;13.70;99.90;;;;;;6245231;23;20048;-78
2022/08/31 02:58:23;;;;;;;0.70;0.60;;;13.60;99.90;;;;;;6246212;23;20016;-78
2022/08/31 03:00:48;;;;;;;1.08;0.75;;;13.50;99.90;;;;;;6218631;23;20049;-78
2022/08/31 03:03:14;;;;;;;1.83;0.60;;;13.50;99.90;;;;;;6245937;23;20027;-78
2022/08/31 03:05:40;;;;;;;2.67;0.88;;;13.40;99.90;;;;;;6246289;23;20008;-78
2022/08/31 03:08:06;;;;;;;1.73;0.70;;;13.40;99.90;;;;;;6246877;23;20083;-78
2022/08/31 03:10:32;;;;;;;4.47;0.60;;;13.30;99.90;;;;;;6218353;23;20012;-78
2022/08/31 03:12:58;;;;;;;0.70;0.60;;;13.20;99.90;;;;;;6219422;23;20024;-78
2022/08/31 03:15:25;;;;;;;1.55;0.82;;;13.20;99.90;;;;;;6245793;23;20050;-78
2022/08/31 03:17:51;;;;;;;1.42;1.00;;;13.20;99.90;;;;;;6219560;23;20071;-78
2022/08/31 03:20:19;;;;;;;3.38;0.73;;;13.20;99.90;;;;;;6218410;23;20020;-78
2022/08/31 03:22:44;;;;;;;2.08;0.70;;;13.10;99.90;;;;;;6217946;23;20024;-78
2022/08/31 03:25:10;;;;;;;1.55;0.60;;;13.00;99.90;;;;;;6219488;23;20404;-78
2022/08/31 03:27:37;;;;;;;1.80;0.65;;;12.90;99.90;;;;;;6219107;23;20094;-78
2022/08/31 03:30:06;;;;;;;0.65;0.40;;;12.80;99.90;;;;;;6245708;23;20070;-78
2022/08/31 03:32:32;;;;;;;1.02;0.82;;;12.80;99.90;;;;;;6246092;23;20119;-78
2022/08/31 03:35:00;;;;;;;4.13;0.63;;;12.80;99.90;;;;;;6244895;23;20463;-78
2022/08/31 03:37:26;;;;;;;1.90;0.60;;;12.70;99.90;;;;;;6218488;23;20024;-78
2022/08/31 03:39:52;;;;;;;3.10;0.35;;;12.60;99.90;;;;;;6194062;23;20013;-78
2022/08/31 03:42:18;;;;;;;1.63;0.77;;;12.60;99.90;;;;;;6194311;23;20325;-78
2022/08/31 03:44:46;;;;;;;2.65;0.75;;;12.50;99.90;;;;;;6245327;23;20016;-78
2022/08/31 03:47:12;;;;;;;0.63;0.50;;;12.50;99.90;;;;;;6219435;23;20023;-78
2022/08/31 03:49:38;;;;;;;0.93;0.60;;;12.40;99.90;;;;;;6218312;23;20031;-78
2022/08/31 03:52:04;;;;;;;0.75;0.70;;;13.10;99.90;;;;;;6218261;23;20090;-78
2022/08/31 03:54:30;;;;;;;0.88;0.47;;;12.30;99.90;;;;;;6193809;23;20016;-78
2022/08/31 03:56:56;;;;;;;3.42;0.60;;;12.20;99.90;;;;;;6219380;23;20016;-78
2022/08/31 03:59:22;;;;;;;1.02;0.70;;;12.10;99.90;;;;;;6217891;23;20017;-78
2022/08/31 04:01:48;;;;;;;2.45;0.60;;;12.00;99.90;;;;;;6193559;23;20016;-78
2022/08/31 04:04:14;;;;;;;1.02;0.63;;;11.90;99.90;;;;;;6218857;23;20012;-78
2022/08/31 04:06:41;;;;;;;1.08;0.90;;;11.90;99.90;;;;;;6217864;23;20020;-78
2022/08/31 04:09:07;;;;;;;1.65;0.70;;;11.80;99.90;;;;;;6245597;23;20470;-78
2022/08/31 04:11:33;;;;;;;0.77;0.63;;;11.70;99.90;;;;;;6219788;23;20016;-78
2022/08/31 04:13:59;;;;;;;1.02;0.80;;;11.70;99.90;;;;;;6192509;23;20016;-78
2022/08/31 04:16:25;;;;;;;0.45;0.45;;;11.60;99.90;;;;;;6194120;23;20020;-79
2022/08/31 04:50:14;;;;;;;6.15;0.70;;;11.00;99.90;;;;;;5119674;27;20600;-80
2022/08/31 04:52:41;;;;;;;1.40;0.70;;;11.30;99.90;;;;;;5140009;27;20058;-79
2022/08/31 04:55:07;;;;;;;0.70;0.70;;;11.10;99.90;;;;;;5130264;27;20039;-80
2022/08/31 04:57:34;;;;;;;1.48;0.60;;;11.00;99.90;;;;;;5133238;27;20039;-81
2022/08/31 05:00:01;;;;;;;1.77;1.00;;;10.90;99.90;;;;;;5129476;28;20040;-81
2022/08/31 05:02:26;;;;;;;1.17;0.93;;;10.90;99.90;;;;;;5130140;28;20559;-81
2022/08/31 05:04:52;;;;;;;2.28;0.80;;;10.90;99.90;;;;;;5125471;28;20048;-82
2022/08/31 05:07:18;;;;;;;2.00;0.77;;;10.90;99.90;;;;;;5117516;27;20096;-80
2022/08/31 05:09:44;;;;;;;1.38;0.70;;;10.90;99.90;;;;;;5130377;27;20062;-80
2022/08/31 05:12:09;;;;;;;1.13;0.73;;;10.90;99.90;;;;;;5131737;27;20039;-80
2022/08/31 05:14:35;;;;;;;1.10;0.90;;;10.80;99.90;;;;;;5130573;28;20126;-80
2022/08/31 05:17:01;;;;;;;3.80;0.88;;;10.70;99.90;;;;;;5127998;27;20036;-80
2022/08/31 05:19:27;;;;;;;1.80;0.80;;;10.70;99.90;;;;;;5100818;28;20044;-80
2022/08/31 05:21:52;;;;;;;1.35;0.80;;;10.80;99.90;;;;;;5116993;27;20474;-80
2022/08/31 05:24:21;;;;;;;0.80;0.80;;;10.80;99.90;;;;;;5164454;27;20047;-80
2022/08/31 05:26:50;;;;;;;1.60;1.00;;;10.90;99.90;;;;;;5129286;27;20398;-81
2022/08/31 05:29:20;;;;;;;0.73;0.60;;;11.00;99.90;;;;;;5130806;27;20077;-80
2022/08/31 05:31:46;;;;;;;0.90;0.70;;;11.10;99.90;;;;;;5118578;28;20070;-80
2022/08/31 05:34:13;;;;;;;3.30;0.82;;;11.20;99.90;;;;;;5111317;28;20128;-80
2022/08/31 05:36:41;;;;;;;1.98;1.17;;;11.30;99.90;;;;;;5117263;27;20426;-80
2022/08/31 05:39:10;;;;;;;2.78;0.90;;;11.40;99.90;;;;;;5143286;27;20047;-80
2022/08/31 05:41:40;;;;;;;5.38;1.10;;;11.50;99.90;;;;;;5121933;27;20444;-80
2022/08/31 05:44:07;;;;;;;1.23;0.80;;;11.60;99.90;;;;;;5130485;27;20403;-80
2022/08/31 05:46:34;;;;;;;1.45;0.80;;;11.60;99.90;;;;;;5123940;27;20039;-81
2022/08/31 05:49:00;;;;;;;2.78;1.08;;;11.70;99.90;;;;;;5119599;28;20055;-80
2022/08/31 05:51:26;;;;;;;3.10;0.80;;;11.90;99.90;;;;;;5107344;27;20123;-80
2022/08/31 05:53:51;;;;;;;1.25;0.77;;;12.00;99.90;;;;;;5095303;28;20048;-80
2022/08/31 05:56:22;;;;;;;1.60;0.80;;;12.20;99.90;;;;;;5110873;28;20043;-80
2022/08/31 05:58:48;;;;;;;0.80;0.70;;;12.40;99.90;;;;;;5107548;28;20048;-79
2022/08/31 06:01:36;;;;;;;3.42;1.00;;;12.50;99.90;;;;;;5094816;28;20082;-80
2022/08/31 06:04:03;;;;;;;0.50;0.50;;;12.80;99.90;;;;;;5107546;27;20454;-79
2022/08/31 06:06:29;;;;;;;3.63;0.80;;;12.90;99.90;;;;;;5114905;28;20130;-80
2022/08/31 06:08:56;;;;;;;4.82;1.00;;;13.00;99.90;;;;;;5105724;28;20372;-80
2022/08/31 06:11:25;;;;;;;1.98;0.73;;;13.20;99.90;;;;;;5101416;28;20048;-80
2022/08/31 06:13:54;;;;;;;0.80;0.70;;;13.30;99.90;;;;;;5116173;27;20044;-79
2022/08/31 06:16:21;;;;;;;1.25;0.65;;;13.50;99.90;;;;;;5116310;28;20092;-80
2022/08/31 06:18:51;;;;;;;0.77;0.70;;;13.60;99.90;;;;;;5111580;27;20078;-84
2022/08/31 06:21:21;;;;;;;2.85;0.65;;;13.80;99.90;;;;;;5116425;27;20048;-80
2022/08/31 06:23:49;;;;;;;1.65;0.82;;;13.90;99.90;;;;;;5108328;28;20036;-80
2022/08/31 06:26:16;;;;;;;2.15;0.80;;;14.10;99.90;;;;;;5094703;28;20061;-80
2022/08/31 06:28:43;;;;;;;1.45;0.70;;;14.20;99.90;;;;;;5094464;28;20502;-80
2022/08/31 06:31:20;;;;;;;1.25;0.80;;;14.40;99.90;;;;;;5094933;28;20047;-79
2022/08/31 06:33:47;;;;;;;1.48;0.80;;;14.50;99.90;;;;;;5094882;28;20368;-79
2022/08/31 06:36:16;;;;;;;1.38;0.65;;;14.60;99.90;;;;;;5095724;28;20398;-80
2022/08/31 06:38:42;;;;;;;3.25;0.70;;;14.80;99.90;;;;;;5094780;28;20105;-81
2022/08/31 06:41:13;;;;;;;0.90;0.60;;;14.80;99.90;;;;;;5094551;28;20483;-80
2022/08/31 06:43:40;;;;;;;1.02;0.82;;;15.00;99.90;;;;;;5094576;28;20058;-80
2022/08/31 06:46:06;;;;;;;1.67;0.60;;;15.00;99.90;;;;;;5093504;28;20121;-80
2022/08/31 06:48:32;;;;;;;0.50;0.50;;;15.10;99.90;;;;;;5093942;28;20052;-80
2022/08/31 06:50:59;;;;;;;5.28;1.00;;;15.20;99.90;;;;;;5094304;28;20044;-80
2022/08/31 06:53:25;;;;;;;1.05;0.60;;;15.30;99.90;;;;;;5093529;28;20406;-80
2022/08/31 06:55:50;;;;;;;1.35;0.70;;;15.40;99.90;;;;;;5094068;28;20040;-79
2022/08/31 06:58:16;;;;;;;6.32;1.02;;;15.60;99.90;;;;;;5094104;28;20047;-80
2022/08/31 07:00:42;;;;;;;2.28;0.60;;;15.70;99.90;;;;;;5094186;28;20097;-79
2022/08/31 07:03:23;;;;;;;2.35;1.42;;;15.80;99.90;;;;;;5093667;28;20046;-80
2022/08/31 07:05:51;;;;;;;2.70;0.70;;;15.90;99.90;;;;;;5092932;28;20044;-80
2022/08/31 07:08:21;;;;;;;1.27;0.50;;;16.00;99.90;;;;;;5094028;28;20040;-81
2022/08/31 07:10:47;;;;;;;2.25;0.80;;;16.10;99.90;;;;;;5093759;28;20620;-80
2022/08/31 07:13:12;;;;;;;5.93;0.63;;;16.20;99.90;;;;;;5094054;28;20048;-80
2022/08/31 07:15:39;;;;;;;0.88;0.60;;;16.30;99.90;;;;;;5093696;28;20156;-80
2022/08/31 07:18:04;;;;;;;1.27;0.60;;;16.30;99.90;;;;;;5076966;28;20099;-80
2022/08/31 07:20:30;;;;;;;2.58;0.40;;;16.40;99.90;;;;;;5094017;28;20048;-81
2022/08/31 07:22:56;;;;;;;1.23;0.50;;;16.50;99.90;;;;;;5093433;28;20086;-82
2022/08/31 07:25:25;;;;;;;3.22;0.50;;;16.60;99.90;;;;;;5094846;28;20036;-79
2022/08/31 07:27:54;;;;;;;3.33;0.40;;;16.70;99.90;;;;;;5075649;28;20040;-84
2022/08/31 07:30:21;;;;;;;3.20;0.50;;;16.80;99.90;;;;;;5093658;28;20087;-80
2022/08/31 07:32:49;;;;;;;2.17;0.40;;;16.90;99.90;;;;;;5093640;28;20044;-79
2022/08/31 07:35:16;;;;;;;0.45;0.30;;;17.00;99.90;;;;;;5093751;28;20387;-80
2022/08/31 07:43:13;;;;;;;2.50;0.50;;;17.20;99.90;;;;;;5093248;28;20097;-81
2022/08/31 07:45:39;;;;;;;1.45;0.38;;;17.30;99.90;;;;;;5093010;28;20250;-82
2022/08/31 07:48:05;;;;;;;1.27;0.50;;;17.40;99.90;;;;;;5093488;28;20140;-81
2022/08/31 07:50:31;;;;;;;1.17;0.50;;;17.40;99.90;;;;;;5093032;28;20040;-79
2022/08/31 07:52:57;;;;;;;1.48;0.50;;;17.50;99.90;;;;;;5093036;28;20055;-81
2022/08/31 07:55:26;;;;;;;0.98;0.40;;;17.50;99.90;;;;;;5092498;28;20380;-83
2022/08/31 07:57:54;;;;;;;2.17;0.60;;;17.60;99.90;;;;;;5094080;28;20119;-80
2022/08/31 08:00:23;;;;;;;1.65;0.75;;;17.60;99.90;;;;;;5092782;28;20056;-81
2022/08/31 08:02:50;;;;;;;2.72;0.55;;;17.60;99.90;;;;;;5091969;28;20566;-80
2022/08/31 08:05:22;;;;;;;2.85;0.50;;;17.70;99.90;;;;;;5094203;28;20040;-81
2022/08/31 08:07:52;;;;;;;0.77;0.50;;;17.80;99.90;;;;;;5076235;28;20040;-80
2022/08/31 08:10:22;;;;;;;3.75;0.52;;;17.80;99.90;;;;;;5093018;28;20119;-81
2022/08/31 08:12:57;;;;;;;3.50;0.50;;;17.80;99.90;;;;;;5092402;28;20048;-86
2022/08/31 08:15:26;;;;;;;0.73;0.32;;;17.80;99.90;;;;;;5094107;28;20052;-81
2022/08/31 08:17:51;;;;;;;1.45;0.40;;;17.90;99.90;;;;;;5074871;28;20039;-80
2022/08/31 08:20:18;;;;;;;4.78;0.50;;;18.00;99.90;;;;;;5093847;28;20043;-80
2022/08/31 08:22:44;;;;;;;0.68;0.40;;;18.00;99.90;;;;;;5092642;28;20048;-81
2022/08/31 08:25:11;;;;;;;1.90;0.47;;;18.00;99.90;;;;;;5093051;28;20036;-81
2022/08/31 08:27:38;;;;;;;1.33;0.38;;;18.00;99.90;;;;;;5093929;28;20054;-85
2022/08/31 08:30:06;;;;;;;1.95;0.43;;;18.00;99.90;;;;;;5093041;28;20043;-80
2022/08/31 08:32:33;;;;;;;0.95;0.30;;;18.10;99.90;;;;;;5092678;28;20044;-81
2022/08/31 08:34:58;;;;;;;1.90;0.50;;;18.10;99.90;;;;;;5075641;28;20552;-80
2022/08/31 08:37:26;;;;;;;1.25;0.57;;;18.10;99.90;;;;;;5091507;28;20036;-81
2022/08/31 08:39:53;;;;;;;5.47;0.50;;;18.10;99.90;;;;;;5092295;28;20044;-85
2022/08/31 08:42:20;;;;;;;0.55;0.35;;;18.10;99.90;;;;;;5092311;28;20471;-79
2022/08/31 08:44:46;;;;;;;1.70;0.50;;;18.20;99.90;;;;;;5092682;28;20491;-80
2022/08/31 08:47:19;;;;;;;1.42;0.50;;;18.20;99.90;;;;;;5093586;28;20040;-79
2022/08/31 08:49:50;;;;;;;3.47;0.50;;;18.30;99.90;;;;;;5093476;28;20499;-82
2022/08/31 08:52:27;;;;;;;0.80;0.50;;;18.40;99.90;;;;;;5091359;28;20056;-82
2022/08/31 08:54:55;;;;;;;0.93;0.55;;;18.40;99.90;;;;;;5093600;28;20041;-83
2022/08/31 08:57:28;;;;;;;0.90;0.30;;;18.40;99.90;;;;;;5093658;28;20048;-81
2022/08/31 09:00:00;;;;;;;0.55;0.40;;;18.50;99.90;;;;;;5091573;28;20106;-80
2022/08/31 09:02:56;;;;;;;1.42;0.40;;;18.50;99.90;;;;;;5092229;28;20086;-83
2022/08/31 09:05:31;;;;;;;1.25;0.50;;;18.70;99.90;;;;;;5091527;28;20087;-82
2022/08/31 09:08:09;;;;;;;1.45;0.77;;;18.70;99.90;;;;;;5093407;28;20040;-85
2022/08/31 09:10:49;;;;;;;2.90;0.60;;;18.70;99.90;;;;;;5092339;28;20093;-80
2022/08/31 09:13:39;;;;;;;2.92;0.40;;;18.80;99.90;;;;;;5092402;28;20505;-82
2022/08/31 09:16:16;;;;;;;0.38;0.38;;;18.90;99.90;;;;;;5093237;28;20040;-82
2022/08/31 09:19:00;;;;;;;0.55;0.38;;;18.90;99.90;;;;;;5091841;28;20084;-84
2022/08/31 09:21:53;;;;;;;1.40;0.60;;;18.90;99.90;;;;;;5091200;28;20036;-83
2022/08/31 09:24:25;;;;;;;1.50;0.55;;;18.90;99.90;;;;;;5092316;28;20051;-81
2022/08/31 09:27:17;;;;;;;2.80;0.40;;;18.80;99.90;;;;;;5096232;28;20047;-82
2022/08/31 09:30:04;;;;;;;2.75;0.70;;;18.80;99.90;;;;;;5095649;28;20069;-84
2022/08/31 09:32:34;;;;;;;2.63;0.60;;;18.80;99.90;;;;;;5096979;28;20136;-82
2022/08/31 09:35:20;;;;;;;0.50;0.50;;;18.80;99.90;;;;;;5095156;28;20048;-81
2022/08/31 09:38:01;;;;;;;0.60;0.40;;;18.80;99.90;;;;;;5095631;28;20395;-80
2022/08/31 09:40:47;;;;;;;1.67;0.30;;;18.80;99.90;;;;;;5095001;28;20044;-80
2022/08/31 09:43:26;;;;;;;1.60;0.70;;;18.90;99.90;;;;;;5096893;28;20048;-83
2022/08/31 09:46:08;;;;;;;0.98;0.35;;;19.00;99.90;;;;;;5095547;28;20040;-83
2022/08/31 09:48:57;;;;;;;1.05;0.50;;;19.00;99.90;;;;;;5095815;28;20059;-78
2022/08/31 09:51:28;;;;;;;1.40;0.65;;;19.10;99.90;;;;;;5095325;28;20049;-81
2022/08/31 09:57:01;;;;;;;2.20;1.50;;;19.20;99.90;;;;;;5127659;27;20051;-81
2022/08/31 09:59:30;;;;;;;3.00;0.50;;;19.40;99.90;;;;;;5078129;28;20044;-81
2022/08/31 10:01:59;;;;;;;3.10;0.55;;;19.50;99.90;;;;;;5094329;28;20483;-80
2022/08/31 10:04:35;;;;;;;3.10;0.60;;;19.60;99.90;;;;;;5095214;28;20051;-82
2022/08/31 10:07:23;;;;;;;3.30;0.55;;;19.70;99.90;;;;;;5096124;28;20046;-78
2022/08/31 10:10:07;;;;;;;1.60;0.55;;;19.70;99.90;;;;;;5095610;28;20048;-79
2022/08/31 10:12:51;;;;;;;4.55;0.60;;;19.90;99.90;;;;;;5095029;28;20058;-81
2022/08/31 10:15:20;;;;;;;1.60;0.47;;;19.90;99.90;;;;;;5095062;28;20051;-81
2022/08/31 10:18:01;;;;;;;1.38;0.68;;;19.90;99.10;;;;;;5095296;28;20043;-81
2022/08/31 10:20:34;;;;;;;1.60;0.57;;;19.80;98.40;;;;;;5096088;28;20115;-80
2022/08/31 10:23:26;;;;;;;1.98;0.45;;;19.70;98.80;;;;;;5077162;28;20044;-82
2022/08/31 10:26:01;;;;;;;0.55;0.45;;;19.70;98.90;;;;;;5094837;28;20127;-80
2022/08/31 10:28:36;;;;;;;1.00;0.40;;;19.60;99.20;;;;;;5094900;28;20095;-79
2022/08/31 10:31:22;;;;;;;1.02;0.57;;;19.60;96.80;;;;;;5095138;28;20040;-81
2022/08/31 10:37:30;;;;;;;0.77;0.60;;;19.70;98.10;;;;;;5093738;28;20128;-84
2022/08/31 10:40:07;;;;;;;5.85;0.50;;;19.80;96.60;;;;;;5077899;28;20048;-86
2022/08/31 10:42:38;;;;;;;1.33;0.40;;;19.80;96.90;;;;;;5094314;28;20514;-80
2022/08/31 10:45:25;;;;;;;6.03;0.60;;;20.00;96.90;;;;;;5093446;28;20131;-80
2022/08/31 10:47:54;;;;;;;3.35;0.40;;;20.10;96.30;;;;;;5095286;28;20048;-78
2022/08/31 10:50:52;;;;;;;0.88;0.45;;;20.20;95.20;;;;;;5095340;28;20044;-81
2022/08/31 10:53:31;;;;;;;3.35;0.57;;;20.30;94.70;;;;;;5094007;28;20089;-81
2022/08/31 10:56:13;;;;;;;0.75;0.45;;;20.40;94.50;;;;;;5094313;28;20127;-81
2022/08/31 10:58:51;;;;;;;1.20;0.55;;;20.50;94.20;;;;;;5076307;28;20051;-79
2022/08/31 11:01:26;;;;;;;0.70;0.38;;;20.50;93.40;;;;;;5094401;28;20044;-80
2022/08/31 11:04:28;;;;;;;1.20;0.47;;;20.50;93.30;;;;;;5095287;28;20051;-80
2022/08/31 11:07:06;;;;;;;1.08;0.45;;;20.60;92.50;;;;;;5093159;28;20082;-79
2022/08/31 11:10:01;;;;;;;4.63;0.77;;;20.60;92.30;;;;;;5093879;28;20044;-79
2022/08/31 11:12:40;;;;;;;1.63;0.60;;;20.70;92.70;;;;;;5094367;28;20079;-79
2022/08/31 11:15:27;;;;;;;3.17;0.55;;;20.70;92.40;;;;;;5077221;28;20043;-80
2022/08/31 11:18:20;;;;;;;0.60;0.60;;;20.70;92.60;;;;;;5094887;28;20442;-80
2022/08/31 11:21:05;;;;;;;1.20;0.40;;;20.80;92.50;;;;;;5094236;28;20040;-80
2022/08/31 11:23:54;;;;;;;4.75;0.68;;;20.80;93.00;;;;;;5094998;28;20398;-78
2022/08/31 11:26:42;;;;;;;0.50;0.40;;;20.90;92.60;;;;;;5092842;28;20141;-78
2022/08/31 11:29:34;;;;;;;2.58;0.60;;;20.90;91.90;;;;;;5093667;28;20044;-81
2022/08/31 11:32:38;;;;;;;1.17;0.52;;;21.00;91.80;;;;;;5094710;28;20456;-79
2022/08/31 11:35:09;;;;;;;3.25;0.60;;;21.00;92.30;;;;;;5087170;28;20080;-82
2022/08/31 11:37:54;;;;;;;3.10;0.60;;;21.10;92.80;;;;;;5076597;28;20040;-79
2022/08/31 11:40:42;;;;;;;;;;;21.10;93.50;;;;;;5076354;28;20090;-79
2022/08/31 11:43:34;;;;;;;3.70;0.80;;;21.10;93.90;;;;;;5094562;28;19920;-80
2022/08/31 11:46:24;;;;;;;0.82;0.47;;;21.20;93.60;;;;;;5093175;28;20044;-80
2022/08/31 11:48:53;;;;;;;0.73;0.45;;;21.20;93.40;;;;;;5091573;28;20060;-80
2022/08/31 11:51:57;;;;;;;0.55;0.40;;;21.00;93.60;;;;;;5076400;28;20040;-88
2022/08/31 11:54:25;;;;;;;2.70;0.40;;;21.00;93.80;;;;;;5071037;28;20070;-80
2022/08/31 11:56:55;;;;;;;0.63;0.40;;;20.90;94.50;;;;;;5055122;28;20321;-82
2022/08/31 11:59:24;;;;;;;0.93;0.30;;;20.90;93.80;;;;;;5072669;28;20128;-82
2022/08/31 12:01:55;;;;;;;1.25;0.35;;;21.00;93.00;;;;;;5093347;28;20051;-82
2022/08/31 12:04:57;;;;;;;1.13;0.35;;;21.00;92.50;;;;;;5094259;28;20044;-80
2022/08/31 12:07:35;;;;;;;2.78;0.32;;;21.00;92.70;;;;;;5092949;28;20060;-79
2022/08/31 12:10:35;;;;;;;0.63;0.40;;;21.00;92.70;;;;;;5093052;28;20127;-83
2022/08/31 12:13:17;;;;;;;2.55;1.05;;;21.00;91.70;;;;;;5092697;28;20127;-80
2022/08/31 12:16:03;;;;;;;3.05;0.50;;;21.10;91.70;;;;;;5075251;28;20491;-82
2022/08/31 12:18:46;;;;;;;0.63;0.40;;;21.20;90.80;;;;;;5092514;28;20524;-86
2022/08/31 12:25:05;;;;;;;0.82;0.60;;;21.30;90.80;;;;;;5111057;27;20044;-79
2022/08/31 12:27:56;;;;;;;1.00;0.40;;;21.30;90.60;;;;;;5092487;28;20525;-78
2022/08/31 12:30:25;;;;;;;0.98;0.55;;;21.50;90.80;;;;;;5092837;28;20048;-80
2022/08/31 12:33:14;;;;;;;5.50;0.63;;;21.50;90.20;;;;;;5075544;28;20052;-79
2022/08/31 12:35:40;;;;;;;0.50;0.40;;;21.50;90.20;;;;;;5093825;28;20044;-83
2022/08/31 12:38:07;;;;;;;0.60;0.40;;;21.60;90.20;;;;;;5091385;28;20051;-81
2022/08/31 12:40:53;;;;;;;1.20;0.98;;;21.60;86.60;;;;;;5092340;28;20463;-79
2022/08/31 12:43:19;;;;;;;0.43;0.20;;;21.60;86.30;;;;;;5092783;28;20040;-80
2022/08/31 12:46:06;;;;;;;2.47;0.60;;;21.60;84.80;;;;;;5093682;28;20054;-81
2022/08/31 12:48:51;;;;;;;3.22;0.40;;;21.60;84.70;;;;;;5092013;28;20055;-79
2022/08/31 12:52:06;;;;;;;0.43;0.43;;;21.60;84.20;;;;;;5091530;28;20059;-80
2022/08/31 12:54:59;;;;;;;2.65;0.50;;;21.70;81.30;;;;;;5070220;28;20506;-80
2022/08/31 12:57:43;;;;;;;1.02;0.43;;;21.70;83.00;;;;;;5074782;28;20040;-80
2022/08/31 13:00:18;;;;;;;0.73;0.55;;;21.70;83.10;;;;;;5094136;28;20071;-80
2022/08/31 13:02:47;;;;;;;1.45;0.30;;;21.70;81.40;;;;;;5096261;28;20052;-82
2022/08/31 13:05:20;;;;;;;6.20;0.50;;;21.70;80.50;;;;;;5095634;28;20101;-82
2022/08/31 13:07:46;;;;;;;1.20;0.50;;;21.70;81.00;;;;;;5096347;28;20044;-81
2022/08/31 13:10:33;;;;;;;1.38;0.60;;;21.70;79.40;;;;;;5096004;28;20051;-78
2022/08/31 13:13:06;;;;;;;1.20;0.45;;;21.80;79.70;;;;;;5096691;28;20056;-84
2022/08/31 13:15:37;;;;;;;3.08;0.90;;;21.80;78.50;;;;;;5096255;28;20044;-80
2022/08/31 13:18:09;;;;;;;0.70;0.50;;;21.80;79.30;;;;;;5097284;28;20352;-81
2022/08/31 13:20:42;;;;;;;2.83;0.45;;;21.80;77.20;;;;;;5096529;28;20071;-83
2022/08/31 13:23:12;;;;;;;4.18;0.50;;;21.80;78.80;;;;;;5095840;28;20048;-80
2022/08/31 13:25:38;;;;;;;3.47;0.60;;;21.90;79.20;;;;;;5094970;28;20052;-80
2022/08/31 13:28:21;;;;;;;0.30;0.30;;;21.90;79.10;;;;;;5078887;28;20101;-80
2022/08/31 13:31:04;;;;;;;1.67;0.50;;;21.90;79.00;;;;;;5095782;28;20182;-79
2022/08/31 13:33:33;;;;;;;1.65;0.45;;;22.00;76.50;;;;;;5094836;28;20051;-80
2022/08/31 13:36:29;;;;;;;1.15;0.50;;;22.00;76.60;;;;;;5079042;28;20130;-81
2022/08/31 13:38:55;;;;;;;2.58;0.43;;;22.00;76.80;;;;;;5130099;27;20497;-81
2022/08/31 13:41:36;;;;;;;0.40;0.40;;;22.00;75.60;;;;;;5095884;28;20044;-82
2022/08/31 13:44:07;;;;;;;2.03;0.63;;;22.00;75.10;;;;;;5095454;28;20048;-79
2022/08/31 13:46:59;;;;;;;0.82;0.40;;;22.00;74.80;;;;;;5096041;28;20040;-83
2022/08/31 13:49:34;;;;;;;4.10;0.55;;;22.00;73.70;;;;;;5095254;28;20056;-82
2022/08/31 13:52:05;;;;;;;1.75;0.40;;;22.00;72.40;;;;;;5095661;28;20048;-81
2022/08/31 13:54:35;;;;;;;0.30;0.30;;;22.00;72.60;;;;;;5094513;28;20054;-82
2022/08/31 13:57:27;;;;;;;3.15;0.60;;;22.00;73.20;;;;;;5096646;28;20035;-80
2022/08/31 13:59:54;;;;;;;2.90;0.50;;;22.10;73.30;;;;;;5096464;28;20097;-79
2022/08/31 14:02:21;;;;;;;1.45;0.32;;;22.10;73.60;;;;;;5077353;28;20058;-80
2022/08/31 14:07:53;;;;;;;0.40;0.40;;;22.20;72.20;;;;;;5096248;28;20047;-81